sensor_id;sensor_type;location;lat;lon;timestamp;temperature;humidity
29345;DHT22;16339;48.748;2.222;2023-06-14T00:00:23;26.40;57.20
29345;DHT22;16339;48.748;2.222;2023-06-14T00:02:52;26.40;57.20
29345;DHT22;16339;48.748;2.222;2023-06-14T00:05:26;26.40;57.20
29345;DHT22;16339;48.748;2.222;2023-06-14T00:07:56;26.30;57.40
29345;DHT22;16339;48.748;2.222;2023-06-14T00:10:26;26.30;57.50
29345;DHT22;16339;48.748;2.222;2023-06-14T00:12:57;26.30;57.70
29345;DHT22;16339;48.748;2.222;2023-06-14T00:15:26;26.20;57.70
29345;DHT22;16339;48.748;2.222;2023-06-14T00:17:56;26.30;57.80
29345;DHT22;16339;48.748;2.222;2023-06-14T00:20:32;26.20;57.90
29345;DHT22;16339;48.748;2.222;2023-06-14T00:23:03;26.20;57.90
29345;DHT22;16339;48.748;2.222;2023-06-14T00:25:32;26.20;58.00
29345;DHT22;16339;48.748;2.222;2023-06-14T00:28:01;26.20;58.00
29345;DHT22;16339;48.748;2.222;2023-06-14T00:30:29;26.10;58.00
29345;DHT22;16339;48.748;2.222;2023-06-14T00:32:58;26.00;58.20
29345;DHT22;16339;48.748;2.222;2023-06-14T00:35:30;26.00;58.30
29345;DHT22;16339;48.748;2.222;2023-06-14T00:37:58;25.90;58.40
29345;DHT22;16339;48.748;2.222;2023-06-14T00:40:29;25.80;58.70
29345;DHT22;16339;48.748;2.222;2023-06-14T00:42:58;25.80;59.00
29345;DHT22;16339;48.748;2.222;2023-06-14T00:45:27;25.70;59.10
29345;DHT22;16339;48.748;2.222;2023-06-14T00:47:57;25.70;59.10
29345;DHT22;16339;48.748;2.222;2023-06-14T00:50:28;25.70;59.20
29345;DHT22;16339;48.748;2.222;2023-06-14T00:52:59;25.60;59.30
29345;DHT22;16339;48.748;2.222;2023-06-14T00:55:28;25.60;59.30
29345;DHT22;16339;48.748;2.222;2023-06-14T00:57:58;25.60;59.50
29345;DHT22;16339;48.748;2.222;2023-06-14T01:00:27;25.50;59.70
29345;DHT22;16339;48.748;2.222;2023-06-14T01:02:56;25.50;59.60
29345;DHT22;16339;48.748;2.222;2023-06-14T01:05:30;25.50;59.80
29345;DHT22;16339;48.748;2.222;2023-06-14T01:08:10;25.40;59.80
29345;DHT22;16339;48.748;2.222;2023-06-14T01:10:49;25.40;59.90
29345;DHT22;16339;48.748;2.222;2023-06-14T01:13:23;25.40;60.00
29345;DHT22;16339;48.748;2.222;2023-06-14T01:15:54;25.40;60.00
29345;DHT22;16339;48.748;2.222;2023-06-14T01:18:23;25.40;60.20
29345;DHT22;16339;48.748;2.222;2023-06-14T01:20:55;25.40;60.30
29345;DHT22;16339;48.748;2.222;2023-06-14T01:23:27;25.40;60.40
29345;DHT22;16339;48.748;2.222;2023-06-14T01:25:58;25.30;60.40
29345;DHT22;16339;48.748;2.222;2023-06-14T01:28:29;25.30;60.70
29345;DHT22;16339;48.748;2.222;2023-06-14T01:31:01;25.30;60.90
29345;DHT22;16339;48.748;2.222;2023-06-14T01:33:35;25.20;60.80
29345;DHT22;16339;48.748;2.222;2023-06-14T01:36:05;25.20;60.80
29345;DHT22;16339;48.748;2.222;2023-06-14T01:38:38;25.20;60.90
29345;DHT22;16339;48.748;2.222;2023-06-14T01:41:11;25.20;60.90
29345;DHT22;16339;48.748;2.222;2023-06-14T01:43:40;25.20;61.00
29345;DHT22;16339;48.748;2.222;2023-06-14T01:46:10;25.20;61.30
29345;DHT22;16339;48.748;2.222;2023-06-14T01:48:39;25.20;61.30
29345;DHT22;16339;48.748;2.222;2023-06-14T01:51:08;25.10;61.40
29345;DHT22;16339;48.748;2.222;2023-06-14T01:53:39;25.10;61.40
29345;DHT22;16339;48.748;2.222;2023-06-14T01:56:07;25.10;61.60
29345;DHT22;16339;48.748;2.222;2023-06-14T01:58:36;25.10;61.60
29345;DHT22;16339;48.748;2.222;2023-06-14T02:01:05;25.00;61.60
29345;DHT22;16339;48.748;2.222;2023-06-14T02:03:34;24.90;61.80
29345;DHT22;16339;48.748;2.222;2023-06-14T02:06:04;24.80;62.00
29345;DHT22;16339;48.748;2.222;2023-06-14T02:08:33;24.80;62.10
29345;DHT22;16339;48.748;2.222;2023-06-14T02:11:04;24.80;62.30
29345;DHT22;16339;48.748;2.222;2023-06-14T02:13:33;24.70;62.40
29345;DHT22;16339;48.748;2.222;2023-06-14T02:16:02;24.70;62.60
29345;DHT22;16339;48.748;2.222;2023-06-14T02:18:31;24.70;62.60
29345;DHT22;16339;48.748;2.222;2023-06-14T02:21:00;24.60;63.00
29345;DHT22;16339;48.748;2.222;2023-06-14T02:23:29;24.60;62.80
29345;DHT22;16339;48.748;2.222;2023-06-14T02:25:58;24.60;62.90
29345;DHT22;16339;48.748;2.222;2023-06-14T02:28:31;24.60;63.20
29345;DHT22;16339;48.748;2.222;2023-06-14T02:31:01;24.60;63.30
29345;DHT22;16339;48.748;2.222;2023-06-14T02:33:29;24.50;63.20
29345;DHT22;16339;48.748;2.222;2023-06-14T02:35:58;24.50;63.50
29345;DHT22;16339;48.748;2.222;2023-06-14T02:38:28;24.50;63.30
29345;DHT22;16339;48.748;2.222;2023-06-14T02:40:57;24.50;63.80
29345;DHT22;16339;48.748;2.222;2023-06-14T02:43:31;24.50;63.30
29345;DHT22;16339;48.748;2.222;2023-06-14T02:46:00;24.50;63.60
29345;DHT22;16339;48.748;2.222;2023-06-14T02:48:30;24.40;63.50
29345;DHT22;16339;48.748;2.222;2023-06-14T02:50:58;24.40;63.60
29345;DHT22;16339;48.748;2.222;2023-06-14T02:53:27;24.40;63.80
29345;DHT22;16339;48.748;2.222;2023-06-14T02:55:56;24.30;63.80
29345;DHT22;16339;48.748;2.222;2023-06-14T02:58:25;24.30;63.90
29345;DHT22;16339;48.748;2.222;2023-06-14T03:00:59;24.30;64.00
29345;DHT22;16339;48.748;2.222;2023-06-14T03:03:31;24.30;64.10
29345;DHT22;16339;48.748;2.222;2023-06-14T03:06:00;24.30;64.20
29345;DHT22;16339;48.748;2.222;2023-06-14T03:08:30;24.30;64.10
29345;DHT22;16339;48.748;2.222;2023-06-14T03:11:04;24.20;64.20
29345;DHT22;16339;48.748;2.222;2023-06-14T03:13:33;24.20;64.50
29345;DHT22;16339;48.748;2.222;2023-06-14T03:16:05;24.20;64.70
29345;DHT22;16339;48.748;2.222;2023-06-14T03:18:34;24.10;64.80
29345;DHT22;16339;48.748;2.222;2023-06-14T03:21:04;24.10;64.90
29345;DHT22;16339;48.748;2.222;2023-06-14T03:23:34;24.10;65.00
29345;DHT22;16339;48.748;2.222;2023-06-14T03:26:03;24.00;64.70
29345;DHT22;16339;48.748;2.222;2023-06-14T03:28:32;24.10;64.90
29345;DHT22;16339;48.748;2.222;2023-06-14T03:31:04;24.00;65.00
29345;DHT22;16339;48.748;2.222;2023-06-14T03:33:34;24.00;64.90
29345;DHT22;16339;48.748;2.222;2023-06-14T03:36:03;24.00;65.80
29345;DHT22;16339;48.748;2.222;2023-06-14T03:38:32;24.00;65.30
29345;DHT22;16339;48.748;2.222;2023-06-14T03:41:01;23.90;65.20
29345;DHT22;16339;48.748;2.222;2023-06-14T03:43:30;23.90;65.30
29345;DHT22;16339;48.748;2.222;2023-06-14T03:45:59;23.90;65.40
29345;DHT22;16339;48.748;2.222;2023-06-14T03:48:30;23.90;65.70
29345;DHT22;16339;48.748;2.222;2023-06-14T03:50:58;23.90;65.60
29345;DHT22;16339;48.748;2.222;2023-06-14T03:53:28;23.90;65.80
29345;DHT22;16339;48.748;2.222;2023-06-14T03:55:58;23.80;65.80
29345;DHT22;16339;48.748;2.222;2023-06-14T03:58:26;23.80;66.40
29345;DHT22;16339;48.748;2.222;2023-06-14T04:00:55;23.80;65.70
29345;DHT22;16339;48.748;2.222;2023-06-14T04:03:24;23.70;65.90
29345;DHT22;16339;48.748;2.222;2023-06-14T04:05:57;23.80;65.80
29345;DHT22;16339;48.748;2.222;2023-06-14T04:08:26;23.70;65.70
29345;DHT22;16339;48.748;2.222;2023-06-14T04:10:54;23.70;66.30
29345;DHT22;16339;48.748;2.222;2023-06-14T04:13:23;23.70;66.30
29345;DHT22;16339;48.748;2.222;2023-06-14T04:15:52;23.60;66.30
29345;DHT22;16339;48.748;2.222;2023-06-14T04:18:22;23.70;66.10
29345;DHT22;16339;48.748;2.222;2023-06-14T04:20:51;23.60;66.20
29345;DHT22;16339;48.748;2.222;2023-06-14T04:23:24;23.60;66.50
29345;DHT22;16339;48.748;2.222;2023-06-14T04:25:53;23.60;66.40
29345;DHT22;16339;48.748;2.222;2023-06-14T04:28:27;23.60;66.40
29345;DHT22;16339;48.748;2.222;2023-06-14T04:30:57;23.60;66.40
29345;DHT22;16339;48.748;2.222;2023-06-14T04:33:27;23.60;66.70
29345;DHT22;16339;48.748;2.222;2023-06-14T04:35:57;23.60;67.00
29345;DHT22;16339;48.748;2.222;2023-06-14T04:38:28;23.60;67.10
29345;DHT22;16339;48.748;2.222;2023-06-14T04:41:00;23.60;66.90
29345;DHT22;16339;48.748;2.222;2023-06-14T04:43:29;23.60;67.20
29345;DHT22;16339;48.748;2.222;2023-06-14T04:46:03;23.50;67.30
29345;DHT22;16339;48.748;2.222;2023-06-14T04:48:31;23.50;67.50
29345;DHT22;16339;48.748;2.222;2023-06-14T04:51:00;23.60;67.60
29345;DHT22;16339;48.748;2.222;2023-06-14T04:53:32;23.60;67.50
29345;DHT22;16339;48.748;2.222;2023-06-14T04:56:00;23.70;67.40
29345;DHT22;16339;48.748;2.222;2023-06-14T04:58:29;23.70;67.50
29345;DHT22;16339;48.748;2.222;2023-06-14T05:00:58;23.70;67.50
29345;DHT22;16339;48.748;2.222;2023-06-14T05:03:28;23.60;67.80
29345;DHT22;16339;48.748;2.222;2023-06-14T05:05:57;23.60;68.10
29345;DHT22;16339;48.748;2.222;2023-06-14T05:08:26;23.60;68.20
29345;DHT22;16339;48.748;2.222;2023-06-14T05:10:59;23.70;68.30
29345;DHT22;16339;48.748;2.222;2023-06-14T05:13:27;23.70;68.40
29345;DHT22;16339;48.748;2.222;2023-06-14T05:15:58;23.70;68.50
29345;DHT22;16339;48.748;2.222;2023-06-14T05:18:27;23.70;68.60
29345;DHT22;16339;48.748;2.222;2023-06-14T05:20:56;23.80;68.80
29345;DHT22;16339;48.748;2.222;2023-06-14T05:23:27;23.80;68.70
29345;DHT22;16339;48.748;2.222;2023-06-14T05:25:59;23.90;68.40
29345;DHT22;16339;48.748;2.222;2023-06-14T05:28:28;23.90;68.50
29345;DHT22;16339;48.748;2.222;2023-06-14T05:30:57;23.90;68.60
29345;DHT22;16339;48.748;2.222;2023-06-14T05:33:26;24.00;68.70
29345;DHT22;16339;48.748;2.222;2023-06-14T05:35:55;24.00;68.80
29345;DHT22;16339;48.748;2.222;2023-06-14T05:38:24;24.00;69.00
29345;DHT22;16339;48.748;2.222;2023-06-14T05:40:53;24.10;69.10
29345;DHT22;16339;48.748;2.222;2023-06-14T05:43:24;24.10;69.20
29345;DHT22;16339;48.748;2.222;2023-06-14T05:45:52;24.20;69.30
29345;DHT22;16339;48.748;2.222;2023-06-14T05:48:21;24.30;69.10
29345;DHT22;16339;48.748;2.222;2023-06-14T05:50:50;24.30;68.80
29345;DHT22;16339;48.748;2.222;2023-06-14T05:53:19;24.30;68.90
29345;DHT22;16339;48.748;2.222;2023-06-14T05:55:47;24.30;68.90
29345;DHT22;16339;48.748;2.222;2023-06-14T05:58:17;24.30;69.00
29345;DHT22;16339;48.748;2.222;2023-06-14T06:00:48;24.40;69.40
29345;DHT22;16339;48.748;2.222;2023-06-14T06:03:19;24.40;69.50
29345;DHT22;16339;48.748;2.222;2023-06-14T06:05:48;24.50;69.40
29345;DHT22;16339;48.748;2.222;2023-06-14T06:08:17;24.50;69.20
29345;DHT22;16339;48.748;2.222;2023-06-14T06:10:46;24.60;69.20
29345;DHT22;16339;48.748;2.222;2023-06-14T06:13:15;24.60;69.40
29345;DHT22;16339;48.748;2.222;2023-06-14T06:15:44;24.70;69.50
29345;DHT22;16339;48.748;2.222;2023-06-14T06:18:17;24.80;69.70
29345;DHT22;16339;48.748;2.222;2023-06-14T06:20:46;24.90;69.70
29345;DHT22;16339;48.748;2.222;2023-06-14T06:23:15;25.00;69.60
29345;DHT22;16339;48.748;2.222;2023-06-14T06:25:44;25.10;69.50
29345;DHT22;16339;48.748;2.222;2023-06-14T06:28:13;25.10;69.70
29345;DHT22;16339;48.748;2.222;2023-06-14T06:30:41;25.10;69.50
29345;DHT22;16339;48.748;2.222;2023-06-14T06:33:10;25.20;69.10
29345;DHT22;16339;48.748;2.222;2023-06-14T06:35:42;25.30;68.90
29345;DHT22;16339;48.748;2.222;2023-06-14T06:38:11;25.40;68.80
29345;DHT22;16339;48.748;2.222;2023-06-14T06:40:39;25.40;68.60
29345;DHT22;16339;48.748;2.222;2023-06-14T06:43:08;25.40;68.60
29345;DHT22;16339;48.748;2.222;2023-06-14T06:45:39;25.50;67.60
29345;DHT22;16339;48.748;2.222;2023-06-14T06:48:08;25.60;67.30
29345;DHT22;16339;48.748;2.222;2023-06-14T06:50:37;25.60;67.00
29345;DHT22;16339;48.748;2.222;2023-06-14T06:53:08;25.70;66.50
29345;DHT22;16339;48.748;2.222;2023-06-14T06:55:36;25.70;65.40
29345;DHT22;16339;48.748;2.222;2023-06-14T06:58:06;25.80;64.40
29345;DHT22;16339;48.748;2.222;2023-06-14T07:00:37;25.90;63.60
29345;DHT22;16339;48.748;2.222;2023-06-14T07:03:06;25.90;63.10
29345;DHT22;16339;48.748;2.222;2023-06-14T07:05:35;25.90;62.50
29345;DHT22;16339;48.748;2.222;2023-06-14T07:08:06;26.00;61.40
29345;DHT22;16339;48.748;2.222;2023-06-14T07:10:35;26.10;61.30
29345;DHT22;16339;48.748;2.222;2023-06-14T07:13:09;26.10;60.20
29345;DHT22;16339;48.748;2.222;2023-06-14T07:15:40;26.10;59.70
29345;DHT22;16339;48.748;2.222;2023-06-14T07:18:21;26.20;59.00
29345;DHT22;16339;48.748;2.222;2023-06-14T07:20:50;26.20;58.90
29345;DHT22;16339;48.748;2.222;2023-06-14T07:23:33;26.30;58.40
29345;DHT22;16339;48.748;2.222;2023-06-14T07:26:04;26.30;57.70
29345;DHT22;16339;48.748;2.222;2023-06-14T07:28:33;26.30;57.60
29345;DHT22;16339;48.748;2.222;2023-06-14T07:31:04;26.40;57.40
29345;DHT22;16339;48.748;2.222;2023-06-14T07:33:33;26.40;57.40
29345;DHT22;16339;48.748;2.222;2023-06-14T07:36:05;26.40;56.60
29345;DHT22;16339;48.748;2.222;2023-06-14T07:38:36;26.50;55.30
29345;DHT22;16339;48.748;2.222;2023-06-14T07:41:20;26.50;54.90
29345;DHT22;16339;48.748;2.222;2023-06-14T07:43:52;26.50;55.20
29345;DHT22;16339;48.748;2.222;2023-06-14T07:46:21;26.60;55.40
29345;DHT22;16339;48.748;2.222;2023-06-14T07:48:49;26.60;55.40
29345;DHT22;16339;48.748;2.222;2023-06-14T07:51:18;26.60;55.40
29345;DHT22;16339;48.748;2.222;2023-06-14T07:53:50;26.70;55.30
29345;DHT22;16339;48.748;2.222;2023-06-14T07:56:18;26.70;55.20
29345;DHT22;16339;48.748;2.222;2023-06-14T07:58:47;26.70;54.30
29345;DHT22;16339;48.748;2.222;2023-06-14T08:01:16;26.70;53.90
29345;DHT22;16339;48.748;2.222;2023-06-14T08:03:45;26.70;53.80
29345;DHT22;16339;48.748;2.222;2023-06-14T08:06:15;26.80;53.80
29345;DHT22;16339;48.748;2.222;2023-06-14T08:08:43;26.80;53.70
29345;DHT22;16339;48.748;2.222;2023-06-14T08:11:15;26.80;53.00
29345;DHT22;16339;48.748;2.222;2023-06-14T08:13:44;26.80;53.80
29345;DHT22;16339;48.748;2.222;2023-06-14T08:16:12;26.90;53.20
29345;DHT22;16339;48.748;2.222;2023-06-14T08:18:41;26.90;52.70
29345;DHT22;16339;48.748;2.222;2023-06-14T08:21:10;26.90;53.00
29345;DHT22;16339;48.748;2.222;2023-06-14T08:23:40;27.00;53.20
29345;DHT22;16339;48.748;2.222;2023-06-14T08:26:09;27.00;52.10
29345;DHT22;16339;48.748;2.222;2023-06-14T08:28:40;27.00;51.40
29345;DHT22;16339;48.748;2.222;2023-06-14T08:31:09;27.00;50.00
29345;DHT22;16339;48.748;2.222;2023-06-14T08:33:38;27.10;49.90
29345;DHT22;16339;48.748;2.222;2023-06-14T08:36:08;27.10;50.10
29345;DHT22;16339;48.748;2.222;2023-06-14T08:38:38;27.10;50.20
29345;DHT22;16339;48.748;2.222;2023-06-14T08:41:08;27.10;49.70
29345;DHT22;16339;48.748;2.222;2023-06-14T08:43:42;27.10;49.40
29345;DHT22;16339;48.748;2.222;2023-06-14T08:46:14;27.10;49.60
29345;DHT22;16339;48.748;2.222;2023-06-14T08:48:46;27.10;49.30
29345;DHT22;16339;48.748;2.222;2023-06-14T08:51:18;27.20;49.40
29345;DHT22;16339;48.748;2.222;2023-06-14T08:53:52;27.30;49.70
29345;DHT22;16339;48.748;2.222;2023-06-14T08:56:24;27.30;49.20
29345;DHT22;16339;48.748;2.222;2023-06-14T08:58:57;27.30;49.20
29345;DHT22;16339;48.748;2.222;2023-06-14T09:01:28;27.30;48.70
29345;DHT22;16339;48.748;2.222;2023-06-14T09:03:57;27.40;49.00
29345;DHT22;16339;48.748;2.222;2023-06-14T09:06:26;27.40;48.80
29345;DHT22;16339;48.748;2.222;2023-06-14T09:08:55;27.40;49.00
29345;DHT22;16339;48.748;2.222;2023-06-14T09:11:25;27.40;49.00
29345;DHT22;16339;48.748;2.222;2023-06-14T09:13:56;27.40;48.70
29345;DHT22;16339;48.748;2.222;2023-06-14T09:16:25;27.40;48.80
29345;DHT22;16339;48.748;2.222;2023-06-14T09:18:54;27.50;48.70
29345;DHT22;16339;48.748;2.222;2023-06-14T09:21:23;27.50;48.50
29345;DHT22;16339;48.748;2.222;2023-06-14T09:23:52;27.50;47.60
29345;DHT22;16339;48.748;2.222;2023-06-14T09:26:21;27.50;46.50
29345;DHT22;16339;48.748;2.222;2023-06-14T09:28:50;27.50;46.80
29345;DHT22;16339;48.748;2.222;2023-06-14T09:31:25;27.50;46.80
29345;DHT22;16339;48.748;2.222;2023-06-14T09:33:57;27.50;47.10
29345;DHT22;16339;48.748;2.222;2023-06-14T09:36:26;27.60;47.00
29345;DHT22;16339;48.748;2.222;2023-06-14T09:38:56;27.50;46.50
29345;DHT22;16339;48.748;2.222;2023-06-14T09:41:35;27.60;46.00
29345;DHT22;16339;48.748;2.222;2023-06-14T09:44:06;27.60;45.50
29345;DHT22;16339;48.748;2.222;2023-06-14T09:46:40;27.70;45.40
29345;DHT22;16339;48.748;2.222;2023-06-14T09:49:11;27.70;45.20
29345;DHT22;16339;48.748;2.222;2023-06-14T09:51:44;27.70;44.80
29345;DHT22;16339;48.748;2.222;2023-06-14T09:54:16;27.70;44.50
29345;DHT22;16339;48.748;2.222;2023-06-14T09:56:45;27.80;45.10
29345;DHT22;16339;48.748;2.222;2023-06-14T09:59:19;27.80;44.70
29345;DHT22;16339;48.748;2.222;2023-06-14T10:01:59;27.80;44.90
29345;DHT22;16339;48.748;2.222;2023-06-14T10:04:30;27.90;44.20
29345;DHT22;16339;48.748;2.222;2023-06-14T10:06:59;28.00;45.00
29345;DHT22;16339;48.748;2.222;2023-06-14T10:09:29;28.10;44.60
29345;DHT22;16339;48.748;2.222;2023-06-14T10:11:58;28.10;44.60
29345;DHT22;16339;48.748;2.222;2023-06-14T10:14:27;28.10;44.60
29345;DHT22;16339;48.748;2.222;2023-06-14T10:17:04;28.10;44.10
29345;DHT22;16339;48.748;2.222;2023-06-14T10:19:44;28.10;44.60
29345;DHT22;16339;48.748;2.222;2023-06-14T10:22:22;28.20;44.10
29345;DHT22;16339;48.748;2.222;2023-06-14T10:24:56;28.20;43.90
29345;DHT22;16339;48.748;2.222;2023-06-14T10:27:25;28.20;43.50
29345;DHT22;16339;48.748;2.222;2023-06-14T10:30:04;28.30;43.70
29345;DHT22;16339;48.748;2.222;2023-06-14T10:35:41;28.40;42.80
29345;DHT22;16339;48.748;2.222;2023-06-14T10:38:14;28.40;42.80
29345;DHT22;16339;48.748;2.222;2023-06-14T10:40:52;28.40;43.70
29345;DHT22;16339;48.748;2.222;2023-06-14T10:43:24;28.40;42.90
29345;DHT22;16339;48.748;2.222;2023-06-14T10:46:14;28.50;43.10
29345;DHT22;16339;48.748;2.222;2023-06-14T10:48:46;28.50;42.90
29345;DHT22;16339;48.748;2.222;2023-06-14T10:51:18;28.50;43.10
29345;DHT22;16339;48.748;2.222;2023-06-14T10:53:49;28.60;43.00
29345;DHT22;16339;48.748;2.222;2023-06-14T10:56:27;28.60;43.40
29345;DHT22;16339;48.748;2.222;2023-06-14T10:58:57;28.60;43.20
29345;DHT22;16339;48.748;2.222;2023-06-14T11:01:55;28.70;43.20
29345;DHT22;16339;48.748;2.222;2023-06-14T11:04:43;28.70;42.60
29345;DHT22;16339;48.748;2.222;2023-06-14T11:07:30;28.80;43.10
29345;DHT22;16339;48.748;2.222;2023-06-14T11:10:14;28.90;42.90
29345;DHT22;16339;48.748;2.222;2023-06-14T11:12:48;28.90;43.10
29345;DHT22;16339;48.748;2.222;2023-06-14T11:15:16;28.90;43.20
29345;DHT22;16339;48.748;2.222;2023-06-14T11:17:51;28.90;43.20
29345;DHT22;16339;48.748;2.222;2023-06-14T11:20:25;29.00;43.60
29345;DHT22;16339;48.748;2.222;2023-06-14T11:22:57;29.00;43.80
29345;DHT22;16339;48.748;2.222;2023-06-14T11:25:26;29.10;43.60
29345;DHT22;16339;48.748;2.222;2023-06-14T11:27:56;29.10;44.30
29345;DHT22;16339;48.748;2.222;2023-06-14T11:30:25;29.10;44.10
29345;DHT22;16339;48.748;2.222;2023-06-14T11:32:55;29.10;44.00
29345;DHT22;16339;48.748;2.222;2023-06-14T11:35:27;29.20;43.80
29345;DHT22;16339;48.748;2.222;2023-06-14T11:37:56;29.20;43.80
29345;DHT22;16339;48.748;2.222;2023-06-14T11:40:27;29.30;43.90
29345;DHT22;16339;48.748;2.222;2023-06-14T11:43:01;29.30;44.00
29345;DHT22;16339;48.748;2.222;2023-06-14T11:45:33;29.40;43.60
29345;DHT22;16339;48.748;2.222;2023-06-14T11:48:03;29.40;43.20
29345;DHT22;16339;48.748;2.222;2023-06-14T11:50:38;29.40;43.50
29345;DHT22;16339;48.748;2.222;2023-06-14T11:53:07;29.40;43.40
29345;DHT22;16339;48.748;2.222;2023-06-14T11:55:36;29.50;43.40
29345;DHT22;16339;48.748;2.222;2023-06-14T11:58:06;29.50;43.00
29345;DHT22;16339;48.748;2.222;2023-06-14T12:00:37;29.50;43.50
29345;DHT22;16339;48.748;2.222;2023-06-14T12:03:07;29.60;43.30
29345;DHT22;16339;48.748;2.222;2023-06-14T12:05:38;29.60;42.50
29345;DHT22;16339;48.748;2.222;2023-06-14T12:08:08;29.70;42.80
29345;DHT22;16339;48.748;2.222;2023-06-14T12:10:43;29.70;43.40
29345;DHT22;16339;48.748;2.222;2023-06-14T12:13:12;29.60;41.70
29345;DHT22;16339;48.748;2.222;2023-06-14T12:15:41;29.60;41.90
29345;DHT22;16339;48.748;2.222;2023-06-14T12:18:10;29.60;43.20
29345;DHT22;16339;48.748;2.222;2023-06-14T12:20:41;29.70;43.60
29345;DHT22;16339;48.748;2.222;2023-06-14T12:23:11;29.80;44.10
29345;DHT22;16339;48.748;2.222;2023-06-14T12:25:41;29.80;44.00
29345;DHT22;16339;48.748;2.222;2023-06-14T12:28:11;29.90;43.80
29345;DHT22;16339;48.748;2.222;2023-06-14T12:30:39;30.00;42.80
29345;DHT22;16339;48.748;2.222;2023-06-14T12:33:08;30.00;42.90
29345;DHT22;16339;48.748;2.222;2023-06-14T12:35:37;30.10;42.50
29345;DHT22;16339;48.748;2.222;2023-06-14T12:38:08;30.10;42.70
29345;DHT22;16339;48.748;2.222;2023-06-14T12:40:37;30.10;42.40
29345;DHT22;16339;48.748;2.222;2023-06-14T12:43:07;30.20;42.20
29345;DHT22;16339;48.748;2.222;2023-06-14T12:45:36;30.20;43.30
29345;DHT22;16339;48.748;2.222;2023-06-14T12:48:05;30.20;42.30
29345;DHT22;16339;48.748;2.222;2023-06-14T12:50:34;30.30;41.80
29345;DHT22;16339;48.748;2.222;2023-06-14T12:53:03;30.30;42.00
29345;DHT22;16339;48.748;2.222;2023-06-14T12:55:35;30.40;42.40
29345;DHT22;16339;48.748;2.222;2023-06-14T12:58:03;30.40;41.90
29345;DHT22;16339;48.748;2.222;2023-06-14T13:00:32;30.50;42.10
29345;DHT22;16339;48.748;2.222;2023-06-14T13:03:01;30.60;42.50
29345;DHT22;16339;48.748;2.222;2023-06-14T13:05:29;30.60;42.40
29345;DHT22;16339;48.748;2.222;2023-06-14T13:07:59;30.70;42.10
29345;DHT22;16339;48.748;2.222;2023-06-14T13:10:28;30.70;41.50
29345;DHT22;16339;48.748;2.222;2023-06-14T13:12:59;30.70;41.90
29345;DHT22;16339;48.748;2.222;2023-06-14T13:15:28;30.80;41.80
29345;DHT22;16339;48.748;2.222;2023-06-14T13:17:56;30.90;41.60
29345;DHT22;16339;48.748;2.222;2023-06-14T13:20:25;30.90;41.50
29345;DHT22;16339;48.748;2.222;2023-06-14T13:22:54;30.90;42.00
29345;DHT22;16339;48.748;2.222;2023-06-14T13:25:23;31.00;41.90
29345;DHT22;16339;48.748;2.222;2023-06-14T13:27:51;31.10;42.00
29345;DHT22;16339;48.748;2.222;2023-06-14T13:30:23;31.10;41.80
29345;DHT22;16339;48.748;2.222;2023-06-14T13:32:53;31.10;41.80
29345;DHT22;16339;48.748;2.222;2023-06-14T13:35:23;31.20;41.80
29345;DHT22;16339;48.748;2.222;2023-06-14T13:37:52;31.20;41.60
29345;DHT22;16339;48.748;2.222;2023-06-14T13:40:21;31.20;41.80
29345;DHT22;16339;48.748;2.222;2023-06-14T13:42:49;31.20;41.80
29345;DHT22;16339;48.748;2.222;2023-06-14T13:45:18;31.30;41.70
29345;DHT22;16339;48.748;2.222;2023-06-14T13:47:49;31.30;41.10
29345;DHT22;16339;48.748;2.222;2023-06-14T13:50:19;31.30;41.00
29345;DHT22;16339;48.748;2.222;2023-06-14T13:52:48;31.20;40.50
29345;DHT22;16339;48.748;2.222;2023-06-14T13:55:18;31.20;40.70
29345;DHT22;16339;48.748;2.222;2023-06-14T13:57:47;31.20;40.20
29345;DHT22;16339;48.748;2.222;2023-06-14T14:00:17;31.20;40.80
29345;DHT22;16339;48.748;2.222;2023-06-14T14:02:45;31.30;42.30
29345;DHT22;16339;48.748;2.222;2023-06-14T14:05:18;31.40;42.60
29345;DHT22;16339;48.748;2.222;2023-06-14T14:07:51;31.60;42.10
29345;DHT22;16339;48.748;2.222;2023-06-14T14:10:20;31.70;41.10
29345;DHT22;16339;48.748;2.222;2023-06-14T14:12:50;31.70;41.80
29345;DHT22;16339;48.748;2.222;2023-06-14T14:15:23;31.80;41.50
29345;DHT22;16339;48.748;2.222;2023-06-14T14:17:52;31.90;41.30
29345;DHT22;16339;48.748;2.222;2023-06-14T14:20:25;31.90;40.90
29345;DHT22;16339;48.748;2.222;2023-06-14T14:22:54;32.00;41.20
29345;DHT22;16339;48.748;2.222;2023-06-14T14:25:27;32.10;40.80
29345;DHT22;16339;48.748;2.222;2023-06-14T14:27:55;32.20;40.00
29345;DHT22;16339;48.748;2.222;2023-06-14T14:30:26;32.10;41.30
29345;DHT22;16339;48.748;2.222;2023-06-14T14:32:55;32.10;40.70
29345;DHT22;16339;48.748;2.222;2023-06-14T14:35:26;32.10;40.20
29345;DHT22;16339;48.748;2.222;2023-06-14T14:37:56;32.10;39.80
29345;DHT22;16339;48.748;2.222;2023-06-14T14:40:25;32.10;39.30
29345;DHT22;16339;48.748;2.222;2023-06-14T14:42:53;32.10;39.20
29345;DHT22;16339;48.748;2.222;2023-06-14T14:45:25;32.10;39.60
29345;DHT22;16339;48.748;2.222;2023-06-14T14:47:54;32.10;39.40
29345;DHT22;16339;48.748;2.222;2023-06-14T14:50:22;32.20;39.90
29345;DHT22;16339;48.748;2.222;2023-06-14T14:52:54;32.20;40.10
29345;DHT22;16339;48.748;2.222;2023-06-14T14:55:22;32.10;39.30
29345;DHT22;16339;48.748;2.222;2023-06-14T14:57:51;32.10;39.00
29345;DHT22;16339;48.748;2.222;2023-06-14T15:00:22;32.10;39.70
29345;DHT22;16339;48.748;2.222;2023-06-14T15:02:51;32.10;39.90
29345;DHT22;16339;48.748;2.222;2023-06-14T15:05:20;32.20;40.10
29345;DHT22;16339;48.748;2.222;2023-06-14T15:07:48;32.30;39.70
29345;DHT22;16339;48.748;2.222;2023-06-14T15:10:20;32.40;40.20
29345;DHT22;16339;48.748;2.222;2023-06-14T15:12:52;32.50;40.40
29345;DHT22;16339;48.748;2.222;2023-06-14T15:15:21;32.70;39.90
29345;DHT22;16339;48.748;2.222;2023-06-14T15:17:50;32.90;40.20
29345;DHT22;16339;48.748;2.222;2023-06-14T15:20:18;33.00;39.00
29345;DHT22;16339;48.748;2.222;2023-06-14T15:22:47;33.00;38.70
29345;DHT22;16339;48.748;2.222;2023-06-14T15:25:16;33.00;39.00
29345;DHT22;16339;48.748;2.222;2023-06-14T15:27:47;33.10;38.70
29345;DHT22;16339;48.748;2.222;2023-06-14T15:30:16;33.30;38.10
29345;DHT22;16339;48.748;2.222;2023-06-14T15:32:45;33.70;37.80
29345;DHT22;16339;48.748;2.222;2023-06-14T15:35:14;34.30;37.90
29345;DHT22;16339;48.748;2.222;2023-06-14T15:37:43;35.00;38.60
29345;DHT22;16339;48.748;2.222;2023-06-14T15:40:12;35.60;36.80
29345;DHT22;16339;48.748;2.222;2023-06-14T15:42:41;35.90;37.30
29345;DHT22;16339;48.748;2.222;2023-06-14T15:45:12;36.50;36.50
29345;DHT22;16339;48.748;2.222;2023-06-14T15:47:41;37.10;36.50
29345;DHT22;16339;48.748;2.222;2023-06-14T15:50:10;37.60;35.60
29345;DHT22;16339;48.748;2.222;2023-06-14T15:52:39;38.20;35.30